Time,TemperatureF,DewpointF,PressureIn,WindDirection,WindDirectionDegrees,WindSpeedMPH,WindSpeedGustMPH,Humidity,HourlyPrecipIn,Conditions,Clouds,dailyrainin,SoftwareType,DateUTC
2013-02-10 00:01:00,39.0,37.0,30.00,SE,131,1.0,6.0,92,0.00,,,0.02,,2013-02-10 06:01:00,
2013-02-10 00:11:00,39.0,37.0,30.00,SE,131,1.0,6.0,92,0.00,,,0.02,,2013-02-10 06:11:00,
2013-02-10 00:21:00,38.0,36.0,29.98,ESE,118,3.0,8.0,93,0.00,,,0.02,,2013-02-10 06:21:00,
2013-02-10 00:32:00,39.0,37.0,29.99,SE,132,2.0,5.0,93,0.00,,,0.02,,2013-02-10 06:32:00,
2013-02-10 00:42:00,39.0,37.0,29.99,SE,132,2.0,5.0,93,0.00,,,0.02,,2013-02-10 06:42:00,
2013-02-10 00:51:00,39.0,37.0,29.96,SE,124,3.0,6.0,93,0.01,,,0.03,,2013-02-10 06:51:00,
2013-02-10 01:01:00,39.0,37.0,29.96,ESE,105,2.0,6.0,93,0.01,,,0.03,,2013-02-10 07:01:00,
2013-02-10 01:11:00,39.0,37.0,29.96,ESE,105,2.0,6.0,93,0.01,,,0.03,,2013-02-10 07:11:00,
2013-02-10 01:21:00,39.0,37.0,29.96,SE,136,3.0,8.0,93,0.01,,,0.03,,2013-02-10 07:21:00,
2013-02-10 01:31:00,39.0,37.0,29.94,ESE,120,2.0,7.0,94,0.01,,,0.03,,2013-02-10 07:31:00,
2013-02-10 01:41:00,39.0,37.0,29.94,ESE,120,2.0,7.0,94,0.01,,,0.03,,2013-02-10 07:41:00,
2013-02-10 01:51:00,39.0,37.0,29.93,ESE,118,2.0,7.0,93,0.00,,,0.03,,2013-02-10 07:51:00,
2013-02-10 02:01:00,40.0,38.0,29.92,ESE,119,3.0,7.0,93,0.00,,,0.03,,2013-02-10 08:01:00,
2013-02-10 02:11:00,40.0,38.0,29.92,ESE,119,3.0,7.0,93,0.00,,,0.03,,2013-02-10 08:11:00,
2013-02-10 02:21:00,40.0,38.0,29.91,East,95,2.0,8.0,93,0.00,,,0.03,,2013-02-10 08:21:00,
2013-02-10 02:32:00,40.0,38.0,29.90,ESE,123,2.0,6.0,92,0.00,,,0.03,,2013-02-10 08:32:00,
2013-02-10 02:43:00,40.0,38.0,29.90,ESE,123,2.0,6.0,92,0.00,,,0.03,,2013-02-10 08:43:00,
2013-02-10 02:52:00,40.0,38.0,29.88,East,86,1.0,4.0,92,0.00,,,0.03,,2013-02-10 08:52:00,
2013-02-10 03:02:00,40.0,38.0,29.87,ESE,103,0.0,4.0,92,0.00,,,0.03,,2013-02-10 09:02:00,
2013-02-10 03:11:00,40.0,38.0,29.87,ESE,103,0.0,4.0,92,0.00,,,0.03,,2013-02-10 09:11:00,
2013-02-10 03:21:00,40.0,38.0,29.85,ENE,63,2.0,4.0,92,0.00,,,0.03,,2013-02-10 09:21:00,
2013-02-10 03:32:00,41.0,39.0,29.84,SE,127,3.0,6.0,92,0.00,,,0.03,,2013-02-10 09:32:00,
2013-02-10 03:41:00,41.0,39.0,29.84,SE,127,3.0,6.0,92,0.00,,,0.03,,2013-02-10 09:41:00,
2013-02-10 03:51:00,41.0,39.0,29.83,East,97,4.0,8.0,92,0.00,,,0.03,,2013-02-10 09:51:00,
2013-02-10 04:01:00,41.0,39.0,29.81,ESE,114,3.0,7.0,93,0.00,,,0.03,,2013-02-10 10:01:00,
2013-02-10 04:11:00,41.0,39.0,29.81,ESE,114,3.0,7.0,93,0.00,,,0.03,,2013-02-10 10:11:00,
2013-02-10 04:21:00,41.0,39.0,29.81,ESE,114,3.0,7.0,93,0.00,,,0.03,,2013-02-10 10:21:00,
2013-02-10 04:31:00,43.0,41.0,29.79,East,95,3.0,10.0,91,0.00,,,0.03,,2013-02-10 10:31:00,
2013-02-10 04:41:00,43.0,41.0,29.79,East,95,3.0,10.0,91,0.00,,,0.03,,2013-02-10 10:41:00,
2013-02-10 04:52:00,44.0,42.0,29.78,SE,129,3.0,7.0,91,0.00,,,0.03,,2013-02-10 10:52:00,
2013-02-10 05:01:00,45.0,43.0,29.78,SE,129,3.0,7.0,91,0.00,,,0.03,,2013-02-10 11:01:00,
2013-02-10 05:11:00,45.0,43.0,29.78,SE,129,3.0,7.0,91,0.00,,,0.03,,2013-02-10 11:11:00,
2013-02-10 05:21:00,45.0,43.0,29.79,ESE,120,3.0,10.0,91,0.00,,,0.03,,2013-02-10 11:21:00,
2013-02-10 05:32:00,46.0,44.0,29.79,ESE,122,1.0,6.0,91,0.00,,,0.03,,2013-02-10 11:32:00,
2013-02-10 05:42:00,46.0,44.0,29.79,ESE,122,1.0,6.0,91,0.00,,,0.03,,2013-02-10 11:42:00,
2013-02-10 05:52:00,46.0,44.0,29.79,SE,138,1.0,4.0,91,0.00,,,0.03,,2013-02-10 11:52:00,
2013-02-10 06:01:00,46.0,44.0,29.79,ENE,58,0.0,2.0,91,0.00,,,0.03,,2013-02-10 12:01:00,
2013-02-10 06:12:00,46.0,44.0,29.79,ENE,58,0.0,2.0,91,0.00,,,0.03,,2013-02-10 12:12:00,
2013-02-10 06:21:00,46.0,44.0,29.78,ENE,69,0.0,2.0,92,0.03,,,0.06,,2013-02-10 12:21:00,
2013-02-10 06:32:00,46.0,44.0,29.79,NNE,15,1.0,2.0,93,0.08,,,0.11,,2013-02-10 12:32:00,
2013-02-10 06:41:00,46.0,44.0,29.79,NNE,15,1.0,2.0,93,0.08,,,0.11,,2013-02-10 12:41:00,
2013-02-10 06:52:00,45.0,44.0,29.81,NNW,335,3.0,6.0,95,0.13,,,0.16,,2013-02-10 12:52:00,
2013-02-10 07:02:00,44.0,43.0,29.80,NW,309,3.0,6.0,95,0.17,,,0.20,,2013-02-10 13:02:00,
2013-02-10 07:11:00,44.0,43.0,29.80,NW,309,3.0,6.0,95,0.17,,,0.20,,2013-02-10 13:11:00,
2013-02-10 07:21:00,44.0,43.0,29.83,NNW,338,2.0,6.0,96,0.20,,,0.26,,2013-02-10 13:21:00,
2013-02-10 07:31:00,44.0,43.0,29.82,NE,37,2.0,3.0,96,0.25,,,0.36,,2013-02-10 13:31:00,
2013-02-10 07:41:00,44.0,43.0,29.82,NE,37,2.0,3.0,96,0.25,,,0.36,,2013-02-10 13:41:00,
2013-02-10 07:51:00,44.0,43.0,29.81,ESE,113,1.0,2.0,97,0.26,,,0.42,,2013-02-10 13:51:00,
2013-02-10 08:02:00,44.0,43.0,29.80,ENE,63,1.0,4.0,97,0.27,,,0.47,,2013-02-10 14:02:00,
2013-02-10 08:11:00,44.0,43.0,29.80,ENE,63,1.0,4.0,97,0.27,,,0.47,,2013-02-10 14:11:00,
2013-02-10 08:21:00,44.0,43.0,29.75,ENE,70,3.0,8.0,97,0.24,,,0.50,,2013-02-10 14:21:00,
2013-02-10 08:32:00,45.0,44.0,29.74,East,97,3.0,7.0,98,0.15,,,0.51,,2013-02-10 14:32:00,
2013-02-10 08:41:00,45.0,44.0,29.74,East,97,3.0,7.0,98,0.15,,,0.51,,2013-02-10 14:41:00,
2013-02-10 08:52:00,46.0,45.0,29.75,NE,37,2.0,12.0,98,0.09,,,0.51,,2013-02-10 14:52:00,
2013-02-10 09:02:00,46.0,45.0,29.75,NNW,340,1.0,4.0,98,0.04,,,0.51,,2013-02-10 15:02:00,
2013-02-10 09:11:00,46.0,45.0,29.75,NNW,340,1.0,4.0,98,0.04,,,0.51,,2013-02-10 15:11:00,
2013-02-10 09:21:00,46.0,45.0,29.75,NNW,340,1.0,4.0,98,0.04,,,0.51,,2013-02-10 15:21:00,
2013-02-10 09:32:00,47.0,46.0,29.74,SE,139,0.0,1.0,98,0.00,,,0.51,,2013-02-10 15:32:00,
2013-02-10 09:42:00,47.0,46.0,29.74,SE,139,0.0,1.0,98,0.00,,,0.51,,2013-02-10 15:42:00,
2013-02-10 09:52:00,48.0,47.0,29.74,SE,139,0.0,1.0,98,0.00,,,0.51,,2013-02-10 15:52:00,
2013-02-10 10:02:00,49.0,48.0,29.74,SE,139,0.0,1.0,98,0.00,,,0.51,,2013-02-10 16:02:00,
2013-02-10 10:11:00,50.0,49.0,29.74,ESE,121,1.0,2.0,98,0.00,,,0.51,,2013-02-10 16:11:00,
2013-02-10 10:22:00,50.0,49.0,29.74,ESE,121,1.0,2.0,98,0.00,,,0.51,,2013-02-10 16:22:00,
2013-02-10 10:32:00,51.0,50.0,29.73,SSE,151,3.0,5.0,98,0.00,,,0.51,,2013-02-10 16:32:00,
2013-02-10 10:42:00,54.0,53.0,29.73,SSE,163,6.0,12.0,98,0.00,,,0.51,,2013-02-10 16:42:00,
2013-02-10 10:52:00,54.0,53.0,29.73,SSE,163,6.0,12.0,98,0.00,,,0.51,,2013-02-10 16:52:00,
2013-02-10 11:01:00,55.0,54.0,29.72,SSE,163,8.0,13.0,95,0.00,,,0.51,,2013-02-10 17:01:00,
2013-02-10 11:11:00,55.0,54.0,29.72,SSE,163,8.0,13.0,95,0.00,,,0.51,,2013-02-10 17:11:00,
2013-02-10 11:21:00,56.0,54.0,29.71,SSE,160,7.0,14.0,93,0.00,,,0.51,,2013-02-10 17:21:00,
2013-02-10 11:32:00,57.0,55.0,29.70,SSE,148,5.0,13.0,93,0.00,,,0.51,,2013-02-10 17:32:00,
2013-02-10 11:42:00,58.0,55.0,29.70,SE,136,5.0,12.0,91,0.00,,,0.51,,2013-02-10 17:42:00,
2013-02-10 11:52:00,58.0,55.0,29.70,SE,136,5.0,12.0,91,0.00,,,0.51,,2013-02-10 17:52:00,
2013-02-10 12:02:00,59.0,56.0,29.68,South,174,6.0,17.0,89,0.00,,,0.51,,2013-02-10 18:02:00,
2013-02-10 12:11:00,61.0,56.0,29.67,SE,141,9.0,18.0,83,0.00,,,0.51,,2013-02-10 18:11:00,
2013-02-10 12:22:00,61.0,56.0,29.67,SE,141,9.0,18.0,83,0.00,,,0.51,,2013-02-10 18:22:00,
2013-02-10 12:32:00,62.0,56.0,29.65,SSE,168,7.0,18.0,80,0.00,,,0.51,,2013-02-10 18:32:00,
2013-02-10 12:42:00,62.0,56.0,29.65,SSE,168,7.0,18.0,80,0.00,,,0.51,,2013-02-10 18:42:00,
2013-02-10 12:52:00,63.0,56.0,29.65,SW,232,8.0,13.0,78,0.00,,,0.51,,2013-02-10 18:52:00,
2013-02-10 13:02:00,65.0,55.0,29.65,SSW,208,8.0,16.0,71,0.00,,,0.51,,2013-02-10 19:02:00,
2013-02-10 13:11:00,65.0,53.0,29.65,WSW,242,11.0,20.0,66,0.00,,,0.51,,2013-02-10 19:11:00,
2013-02-10 13:22:00,65.0,53.0,29.65,WSW,242,11.0,20.0,66,0.00,,,0.51,,2013-02-10 19:22:00,
2013-02-10 13:32:00,66.0,52.0,29.65,SSW,207,7.0,20.0,60,0.00,,,0.51,,2013-02-10 19:32:00,
2013-02-10 13:42:00,65.0,48.0,29.64,SSW,205,9.0,21.0,55,0.00,,,0.51,,2013-02-10 19:42:00,
2013-02-10 13:52:00,65.0,48.0,29.64,SSW,205,9.0,21.0,55,0.00,,,0.51,,2013-02-10 19:52:00,
2013-02-10 14:02:00,66.0,46.0,29.65,SW,228,11.0,20.0,48,0.00,,,0.51,,2013-02-10 20:02:00,
2013-02-10 14:11:00,66.0,46.0,29.65,SW,228,11.0,20.0,48,0.00,,,0.51,,2013-02-10 20:11:00,
2013-02-10 14:22:00,66.0,40.0,29.64,SW,222,11.0,24.0,39,0.00,,,0.51,,2013-02-10 20:22:00,
2013-02-10 14:32:00,66.0,35.0,29.65,WSW,242,13.0,22.0,32,0.00,,,0.51,,2013-02-10 20:32:00,
2013-02-10 14:42:00,66.0,36.0,29.66,WSW,255,8.0,22.0,33,0.00,,,0.51,,2013-02-10 20:42:00,
2013-02-10 14:52:00,66.0,36.0,29.66,WSW,255,8.0,22.0,33,0.00,,,0.51,,2013-02-10 20:52:00,
2013-02-10 15:02:00,66.0,33.0,29.66,SSW,207,10.0,17.0,29,0.00,,,0.51,,2013-02-10 21:02:00,
2013-02-10 15:11:00,66.0,33.0,29.66,SSW,207,10.0,17.0,29,0.00,,,0.51,,2013-02-10 21:11:00,
2013-02-10 15:21:00,67.0,35.0,29.67,SW,233,7.0,14.0,30,0.00,,,0.51,,2013-02-10 21:21:00,
2013-02-10 15:32:00,66.0,31.0,29.67,West,281,5.0,17.0,27,0.00,,,0.51,,2013-02-10 21:32:00,
2013-02-10 15:42:00,67.0,32.0,29.68,WSW,256,8.0,19.0,27,0.00,,,0.51,,2013-02-10 21:42:00,
2013-02-10 15:51:00,67.0,32.0,29.68,WSW,256,8.0,19.0,27,0.00,,,0.51,,2013-02-10 21:51:00,
2013-02-10 16:02:00,66.0,31.0,29.68,West,274,12.0,21.0,27,0.00,,,0.51,,2013-02-10 22:02:00,
2013-02-10 16:11:00,66.0,32.0,29.69,SW,222,7.0,16.0,28,0.00,,,0.51,,2013-02-10 22:11:00,
2013-02-10 16:22:00,66.0,32.0,29.69,SW,222,7.0,16.0,28,0.00,,,0.51,,2013-02-10 22:22:00,
2013-02-10 16:32:00,66.0,32.0,29.70,WSW,250,9.0,17.0,28,0.00,,,0.51,,2013-02-10 22:32:00,
2013-02-10 16:42:00,66.0,33.0,29.71,West,267,8.0,17.0,29,0.00,,,0.51,,2013-02-10 22:42:00,
2013-02-10 16:52:00,66.0,33.0,29.71,West,267,8.0,17.0,29,0.00,,,0.51,,2013-02-10 22:52:00,
2013-02-10 17:02:00,65.0,34.0,29.71,West,274,8.0,14.0,32,0.00,,,0.51,,2013-02-10 23:02:00,
2013-02-10 17:11:00,65.0,34.0,29.71,West,274,8.0,14.0,32,0.00,,,0.51,,2013-02-10 23:11:00,
2013-02-10 17:22:00,65.0,36.0,29.72,West,262,5.0,15.0,34,0.00,,,0.51,,2013-02-10 23:22:00,
2013-02-10 17:32:00,64.0,33.0,29.73,WNW,283,7.0,13.0,31,0.00,,,0.51,,2013-02-10 23:32:00,
2013-02-10 17:42:00,62.0,29.0,29.74,West,271,6.0,14.0,29,0.00,,,0.51,,2013-02-10 23:42:00,
2013-02-10 17:52:00,62.0,29.0,29.74,West,271,6.0,14.0,29,0.00,,,0.51,,2013-02-10 23:52:00,
2013-02-10 18:02:00,61.0,29.0,29.75,WNW,293,4.0,13.0,30,0.00,,,0.51,,2013-02-11 00:02:00,
2013-02-10 18:11:00,59.0,29.0,29.76,West,263,5.0,9.0,32,0.00,,,0.51,,2013-02-11 00:11:00,
2013-02-10 18:22:00,59.0,29.0,29.76,West,263,5.0,9.0,32,0.00,,,0.51,,2013-02-11 00:22:00,
2013-02-10 18:32:00,59.0,30.0,29.77,WNW,301,3.0,7.0,33,0.00,,,0.51,,2013-02-11 00:32:00,
2013-02-10 18:42:00,57.0,30.0,29.78,West,271,2.0,5.0,35,0.00,,,0.51,,2013-02-11 00:42:00,
2013-02-10 18:52:00,57.0,30.0,29.78,West,271,2.0,5.0,35,0.00,,,0.51,,2013-02-11 00:52:00,
2013-02-10 19:01:00,56.0,29.0,29.78,West,281,1.0,5.0,36,0.00,,,0.51,,2013-02-11 01:01:00,
2013-02-10 19:11:00,56.0,29.0,29.78,West,281,1.0,5.0,36,0.00,,,0.51,,2013-02-11 01:11:00,
2013-02-10 19:21:00,56.0,30.0,29.80,West,277,2.0,4.0,37,0.00,,,0.49,,2013-02-11 01:21:00,
2013-02-10 19:32:00,55.0,30.0,29.81,WNW,287,2.0,4.0,38,0.00,,,0.49,,2013-02-11 01:32:00,
2013-02-10 19:41:00,54.0,30.0,29.82,WSW,252,1.0,4.0,39,0.00,,,0.49,,2013-02-11 01:41:00,
2013-02-10 19:52:00,54.0,30.0,29.82,WSW,252,1.0,4.0,39,0.00,,,0.49,,2013-02-11 01:52:00,
2013-02-10 20:01:00,54.0,31.0,29.83,WNW,288,2.0,4.0,41,0.00,,,0.49,,2013-02-11 02:01:00,
2013-02-10 20:11:00,54.0,31.0,29.83,WNW,288,2.0,4.0,41,0.00,,,0.49,,2013-02-11 02:11:00,
2013-02-10 20:21:00,53.0,31.0,29.83,WNW,285,1.0,6.0,43,0.00,,,0.49,,2013-02-11 02:21:00,
2013-02-10 20:31:00,53.0,31.0,29.84,WSW,239,2.0,5.0,43,0.00,,,0.49,,2013-02-11 02:31:00,
2013-02-10 20:42:00,52.0,31.0,29.85,SSW,210,2.0,5.0,44,0.00,,,0.49,,2013-02-11 02:42:00,
2013-02-10 20:52:00,52.0,31.0,29.85,SSW,210,2.0,5.0,44,0.00,,,0.49,,2013-02-11 02:52:00,
2013-02-10 21:01:00,51.0,30.0,29.85,WSW,245,2.0,4.0,45,0.00,,,0.49,,2013-02-11 03:01:00,
2013-02-10 21:11:00,51.0,30.0,29.85,WSW,245,2.0,4.0,45,0.00,,,0.49,,2013-02-11 03:11:00,
2013-02-10 21:21:00,51.0,31.0,29.86,SW,214,2.0,5.0,46,0.00,,,0.49,,2013-02-11 03:21:00,
2013-02-10 21:31:00,50.0,31.0,29.86,SW,218,2.0,4.0,47,0.00,,,0.49,,2013-02-11 03:31:00,
2013-02-10 21:42:00,50.0,31.0,29.87,SW,236,2.0,4.0,48,0.00,,,0.49,,2013-02-11 03:42:00,
2013-02-10 21:52:00,50.0,31.0,29.87,SW,236,2.0,4.0,48,0.00,,,0.49,,2013-02-11 03:52:00,
2013-02-10 22:01:00,50.0,31.0,29.89,WSW,252,2.0,7.0,48,0.00,,,0.49,,2013-02-11 04:01:00,
2013-02-10 22:11:00,50.0,31.0,29.89,WSW,252,2.0,7.0,48,0.00,,,0.49,,2013-02-11 04:11:00,
2013-02-10 22:21:00,52.0,31.0,29.90,West,264,5.0,14.0,45,0.00,,,0.49,,2013-02-11 04:21:00,
2013-02-10 22:31:00,52.0,31.0,29.91,WNW,298,6.0,12.0,44,0.00,,,0.49,,2013-02-11 04:31:00,
2013-02-10 22:42:00,53.0,31.0,29.93,West,281,10.0,19.0,42,0.00,,,0.49,,2013-02-11 04:42:00,
2013-02-10 22:52:00,53.0,31.0,29.93,West,281,10.0,19.0,42,0.00,,,0.49,,2013-02-11 04:52:00,
2013-02-10 23:01:00,52.0,31.0,29.94,West,278,11.0,29.0,44,0.00,,,0.49,,2013-02-11 05:01:00,
2013-02-10 23:11:00,50.0,29.0,29.95,WNW,289,12.0,33.0,45,0.00,,,0.49,,2013-02-11 05:11:00,
2013-02-10 23:22:00,50.0,29.0,29.95,WNW,289,12.0,33.0,45,0.00,,,0.49,,2013-02-11 05:22:00,
2013-02-10 23:31:00,49.0,30.0,29.97,WNW,291,12.0,21.0,47,0.00,,,0.49,,2013-02-11 05:31:00,
2013-02-10 23:42:00,49.0,30.0,29.97,WNW,291,12.0,21.0,47,0.00,,,0.49,,2013-02-11 05:42:00,
2013-02-10 23:52:00,48.0,29.0,29.98,WNW,288,5.0,15.0,48,0.00,,,0.49,,2013-02-11 05:52:00,